Time;durP1;ratioP1;P1;durP2;ratioP2;P2;SDS_P1;SDS_P2;PMS_P1;PMS_P2;Temp;Humidity;BMP_temperature;BMP_pressure;BME280_temperature;BME280_humidity;BME280_pressure;Samples;Min_cycle;Max_cycle;Signal;HPM_P1;HPM_P2
2021/11/10 00:00:04;;;;;;;11.93;9.20;;;7.40;99.90;;;;;;6166926;23;20160;-83
2021/11/10 00:02:31;;;;;;;14.75;9.88;;;7.40;99.90;;;;;;6167984;23;20204;-83
2021/11/10 00:04:59;;;;;;;23.98;10.45;;;7.40;99.90;;;;;;6167700;23;20213;-84
2021/11/10 00:07:26;;;;;;;16.17;10.18;;;7.40;99.90;;;;;;6175515;23;20187;-85
2021/11/10 00:09:53;;;;;;;15.25;9.98;;;7.30;99.90;;;;;;6177325;23;20190;-85
2021/11/10 00:12:20;;;;;;;12.18;8.90;;;7.30;99.90;;;;;;6176449;23;20183;-82
2021/11/10 00:14:46;;;;;;;13.40;10.45;;;7.30;99.90;;;;;;6175852;23;20185;-83
2021/11/10 00:17:13;;;;;;;12.63;8.32;;;7.30;99.90;;;;;;6167145;23;20579;-81
2021/11/10 00:19:40;;;;;;;10.85;9.35;;;7.30;99.90;;;;;;6165965;23;20212;-82
2021/11/10 00:22:09;;;;;;;13.60;8.70;;;7.50;99.90;;;;;;6163836;23;20256;-85
2021/11/10 00:24:36;;;;;;;18.00;9.05;;;7.30;99.90;;;;;;6164248;23;20181;-83
2021/11/10 00:27:03;;;;;;;14.32;8.30;;;7.30;99.90;;;;;;6164456;23;20322;-84
2021/11/10 00:29:30;;;;;;;21.73;9.23;;;7.30;99.90;;;;;;6164152;23;20234;-84
2021/11/10 00:31:57;;;;;;;16.50;8.45;;;7.20;99.90;;;;;;6170938;23;20213;-84
2021/11/10 00:34:23;;;;;;;13.80;9.00;;;7.20;99.90;;;;;;6178764;23;20188;-84
2021/11/10 00:36:50;;;;;;;13.20;9.77;;;7.20;99.90;;;;;;6178136;23;20178;-83
2021/11/10 00:39:19;;;;;;;12.95;8.88;;;7.20;99.90;;;;;;6178628;23;20191;-86
2021/11/10 00:41:46;;;;;;;17.70;9.30;;;7.10;99.90;;;;;;6178798;23;20223;-82
2021/11/10 00:44:12;;;;;;;15.38;8.60;;;7.10;99.90;;;;;;6178850;23;20179;-83
2021/11/10 00:46:39;;;;;;;11.75;8.20;;;7.10;99.90;;;;;;6177254;23;20239;-83
2021/11/10 00:49:06;;;;;;;17.83;9.82;;;7.10;99.90;;;;;;6168203;23;20696;-83
2021/11/10 00:51:33;;;;;;;10.43;8.60;;;7.10;99.90;;;;;;6166672;23;20219;-83
2021/11/10 00:54:00;;;;;;;14.23;7.57;;;7.10;99.90;;;;;;6167062;23;20175;-82
2021/11/10 00:56:28;;;;;;;11.27;8.45;;;7.10;99.90;;;;;;6166859;23;20276;-83
2021/11/10 00:58:55;;;;;;;15.18;9.95;;;7.10;99.90;;;;;;6166512;23;20177;-84
2021/11/10 01:01:22;;;;;;;14.57;9.85;;;7.10;99.90;;;;;;6166318;23;20174;-84
2021/11/10 01:03:49;;;;;;;17.10;9.25;;;7.10;99.90;;;;;;6165693;23;20195;-83
2021/11/10 01:06:16;;;;;;;14.70;9.50;;;7.10;99.90;;;;;;6165646;23;20200;-82
2021/11/10 01:08:43;;;;;;;17.40;9.75;;;7.10;99.90;;;;;;6166804;23;20180;-83
2021/11/10 01:11:10;;;;;;;20.63;10.40;;;7.00;99.90;;;;;;6166170;23;20172;-84
2021/11/10 01:13:39;;;;;;;17.23;9.77;;;7.00;99.90;;;;;;6166160;23;20259;-83
2021/11/10 01:16:06;;;;;;;12.48;8.48;;;7.00;99.90;;;;;;6168705;23;20202;-83
2021/11/10 01:18:33;;;;;;;12.52;9.18;;;7.00;99.90;;;;;;6167872;23;20183;-84
2021/11/10 01:21:00;;;;;;;16.90;10.35;;;7.00;99.90;;;;;;6166249;23;20191;-84
2021/11/10 01:23:28;;;;;;;14.75;9.63;;;7.00;99.90;;;;;;6166276;23;20244;-82
2021/11/10 01:25:55;;;;;;;13.73;8.68;;;6.90;99.90;;;;;;6164874;23;20187;-82
2021/11/10 01:28:22;;;;;;;16.15;9.95;;;6.90;99.90;;;;;;6165852;23;20661;-83
2021/11/10 01:30:51;;;;;;;12.18;8.85;;;6.90;99.90;;;;;;6165605;23;20235;-83
2021/11/10 01:33:18;;;;;;;12.68;9.95;;;6.90;99.90;;;;;;6165616;23;20234;-82
2021/11/10 01:35:45;;;;;;;12.75;8.98;;;6.90;99.90;;;;;;6164018;23;20631;-82
2021/11/10 01:38:12;;;;;;;10.15;8.23;;;6.90;99.90;;;;;;6165238;23;20262;-82
2021/11/10 01:40:39;;;;;;;14.13;9.80;;;6.90;99.90;;;;;;6165052;23;20207;-82
2021/11/10 01:43:12;;;;;;;13.68;9.30;;;6.90;99.90;;;;;;6164664;23;20252;-82
2021/11/10 01:45:39;;;;;;;12.65;8.80;;;6.90;99.90;;;;;;6165999;23;20172;-83
2021/11/10 01:48:07;;;;;;;13.27;9.27;;;6.90;99.90;;;;;;6171259;23;20508;-82
2021/11/10 01:50:35;;;;;;;11.48;8.80;;;6.90;99.90;;;;;;6173016;23;20214;-83
2021/11/10 01:53:01;;;;;;;19.77;10.82;;;6.90;99.90;;;;;;6173305;23;20233;-84
2021/11/10 01:55:29;;;;;;;20.70;10.55;;;6.90;99.90;;;;;;6172477;23;20212;-83
2021/11/10 01:57:56;;;;;;;18.13;14.07;;;6.90;99.90;;;;;;6174237;23;20179;-82
2021/11/10 02:00:26;;;;;;;13.40;9.63;;;6.80;99.90;;;;;;6174913;23;20181;-82
2021/11/10 02:02:54;;;;;;;10.60;8.48;;;6.80;99.90;;;;;;6174508;23;20222;-82
2021/11/10 02:05:22;;;;;;;11.95;9.70;;;6.90;99.90;;;;;;6173988;23;20183;-83
2021/11/10 02:07:50;;;;;;;16.17;9.02;;;6.70;99.90;;;;;;6169149;23;20215;-82
2021/11/10 02:10:24;;;;;;;19.67;10.15;;;6.70;99.90;;;;;;6169328;23;20216;-83
2021/11/10 02:12:51;;;;;;;12.00;8.10;;;6.70;99.90;;;;;;6169703;23;20228;-82
2021/11/10 02:15:20;;;;;;;10.95;8.30;;;6.80;99.90;;;;;;6167220;23;20182;-83
2021/11/10 02:17:49;;;;;;;13.57;7.90;;;6.80;99.90;;;;;;6168110;23;20179;-83
2021/11/10 02:20:16;;;;;;;11.40;9.13;;;6.80;99.90;;;;;;6167345;23;20575;-83
2021/11/10 02:22:44;;;;;;;14.57;8.70;;;6.70;99.90;;;;;;6165919;23;20224;-82
2021/11/10 02:25:13;;;;;;;15.43;10.68;;;6.70;99.90;;;;;;6165531;23;20239;-82
2021/11/10 02:27:41;;;;;;;13.27;9.57;;;6.90;99.90;;;;;;6165147;23;20214;-82
2021/11/10 02:30:10;;;;;;;13.77;8.90;;;6.80;99.90;;;;;;6163589;23;20190;-82
2021/11/10 02:32:38;;;;;;;14.00;9.02;;;6.80;99.90;;;;;;6164515;23;20190;-82
2021/11/10 02:35:06;;;;;;;15.68;12.13;;;6.70;99.90;;;;;;6165440;23;20175;-82
2021/11/10 02:37:34;;;;;;;15.95;11.25;;;6.70;99.90;;;;;;6163294;23;20212;-83
2021/11/10 02:40:04;;;;;;;12.88;8.75;;;6.70;99.90;;;;;;6163644;23;20193;-83
2021/11/10 02:42:41;;;;;;;14.77;9.93;;;6.60;99.90;;;;;;6165097;23;20202;-83
2021/11/10 02:45:09;;;;;;;15.35;9.85;;;6.50;99.90;;;;;;6169604;23;20234;-83
2021/11/10 02:47:36;;;;;;;11.57;10.38;;;6.50;99.90;;;;;;6172763;23;20203;-83
2021/11/10 02:50:04;;;;;;;16.45;8.73;;;6.50;99.90;;;;;;6175924;23;20177;-83
2021/11/10 02:52:31;;;;;;;11.25;8.75;;;6.50;99.90;;;;;;6170299;23;20579;-82
2021/11/10 02:54:58;;;;;;;19.13;10.30;;;6.50;99.90;;;;;;6166079;23;20175;-84
2021/11/10 02:57:27;;;;;;;13.90;10.43;;;6.40;99.90;;;;;;6166257;23;20178;-84
2021/11/10 02:59:54;;;;;;;16.05;8.88;;;6.30;99.90;;;;;;6165699;23;20213;-83
2021/11/10 03:02:26;;;;;;;17.60;10.00;;;6.20;99.90;;;;;;6165526;23;20193;-83
2021/11/10 03:04:54;;;;;;;13.23;10.38;;;6.20;99.90;;;;;;6164388;23;20181;-82
2021/11/10 03:07:21;;;;;;;15.43;10.80;;;6.20;99.90;;;;;;6161535;23;20220;-83
2021/11/10 03:09:49;;;;;;;21.75;9.50;;;6.20;99.90;;;;;;6166286;23;20249;-83
2021/11/10 03:12:18;;;;;;;12.85;9.68;;;6.20;99.90;;;;;;6164807;23;20284;-81
2021/11/10 03:14:48;;;;;;;13.35;9.20;;;6.20;99.90;;;;;;6163902;23;20177;-83
2021/11/10 03:17:17;;;;;;;18.23;10.77;;;6.20;99.90;;;;;;6160959;23;20523;-82
2021/11/10 03:19:45;;;;;;;15.65;9.70;;;6.30;99.90;;;;;;6163156;23;20258;-83
2021/11/10 03:22:13;;;;;;;13.88;8.88;;;6.30;99.90;;;;;;6163184;23;20569;-82
2021/11/10 03:24:40;;;;;;;12.75;9.05;;;6.30;99.90;;;;;;6162057;23;20713;-82
2021/11/10 03:27:08;;;;;;;15.02;10.52;;;6.30;99.90;;;;;;6160214;23;20203;-82
2021/11/10 03:29:36;;;;;;;20.73;9.80;;;6.20;99.90;;;;;;6161913;23;20183;-83
2021/11/10 03:32:05;;;;;;;14.68;9.63;;;6.30;99.90;;;;;;6162450;23;20230;-82
2021/11/10 03:34:32;;;;;;;16.98;9.73;;;6.30;99.90;;;;;;6161049;23;20630;-82
2021/11/10 03:36:59;;;;;;;18.70;9.45;;;6.20;99.90;;;;;;6161969;23;20196;-82
2021/11/10 03:39:26;;;;;;;12.95;9.57;;;6.10;99.90;;;;;;6161281;23;20188;-83
2021/11/10 03:41:53;;;;;;;14.82;9.15;;;6.00;99.90;;;;;;6161142;23;20865;-83
2021/11/10 03:44:20;;;;;;;13.40;9.40;;;6.00;99.90;;;;;;6162884;23;20261;-83
2021/11/10 03:46:47;;;;;;;15.80;9.85;;;6.00;99.90;;;;;;6161366;23;20230;-82
2021/11/10 03:49:15;;;;;;;15.77;9.45;;;6.10;99.90;;;;;;6161434;23;20209;-83
2021/11/10 03:51:43;;;;;;;12.93;8.77;;;6.10;99.90;;;;;;6159962;23;20257;-83
2021/11/10 03:54:10;;;;;;;11.57;8.50;;;6.10;99.90;;;;;;6160553;23;20534;-85
2021/11/10 03:56:37;;;;;;;18.80;11.18;;;6.20;99.90;;;;;;6160684;23;20182;-83
2021/11/10 03:59:04;;;;;;;17.67;9.77;;;6.00;99.90;;;;;;6162210;23;20258;-83
2021/11/10 04:01:31;;;;;;;10.52;9.35;;;6.00;99.90;;;;;;6161936;23;20359;-83
2021/11/10 04:03:58;;;;;;;25.38;10.43;;;6.10;99.90;;;;;;6161562;23;20199;-82
2021/11/10 04:06:26;;;;;;;12.90;10.38;;;6.10;99.90;;;;;;6161410;23;20181;-82
2021/11/10 04:08:54;;;;;;;17.42;10.50;;;6.20;99.90;;;;;;6160486;23;20233;-83
2021/11/10 04:11:21;;;;;;;22.35;11.02;;;6.20;99.90;;;;;;6162817;23;20204;-82
2021/11/10 04:13:48;;;;;;;10.07;9.05;;;6.10;99.90;;;;;;6162970;23;20189;-83
2021/11/10 04:16:20;;;;;;;13.80;10.38;;;6.20;99.90;;;;;;6166908;23;20236;-83
2021/11/10 04:18:48;;;;;;;13.13;8.85;;;6.20;99.90;;;;;;6166612;23;20246;-83
2021/11/10 04:21:16;;;;;;;13.02;9.50;;;6.20;99.90;;;;;;6165842;23;20201;-83
2021/11/10 04:23:44;;;;;;;16.90;9.63;;;6.20;99.90;;;;;;6161347;23;20724;-83
2021/11/10 04:26:11;;;;;;;11.13;9.38;;;6.20;99.90;;;;;;6172830;23;20192;-82
2021/11/10 04:28:38;;;;;;;15.80;10.00;;;6.20;99.90;;;;;;6173602;23;20197;-82
2021/11/10 04:31:05;;;;;;;15.93;9.85;;;6.10;99.90;;;;;;6174827;23;20186;-82
2021/11/10 04:33:32;;;;;;;19.70;10.40;;;6.10;99.90;;;;;;6177005;23;20201;-80
2021/11/10 04:35:59;;;;;;;14.68;9.98;;;6.10;99.90;;;;;;6171102;23;20153;-82
2021/11/10 04:38:26;;;;;;;10.20;8.48;;;6.10;99.90;;;;;;6168638;23;20177;-85
2021/11/10 04:40:54;;;;;;;16.13;9.90;;;6.10;99.90;;;;;;6167858;23;20259;-82
2021/11/10 04:43:21;;;;;;;16.20;10.27;;;6.20;99.90;;;;;;6164899;23;20209;-83
2021/11/10 04:45:53;;;;;;;16.63;9.20;;;6.20;99.90;;;;;;6164597;23;20166;-83
2021/11/10 04:48:19;;;;;;;14.95;9.07;;;6.10;99.90;;;;;;6164620;23;20182;-83
2021/11/10 04:50:47;;;;;;;14.02;9.15;;;6.10;99.90;;;;;;6164585;23;20220;-83
2021/11/10 04:53:15;;;;;;;13.27;8.82;;;6.20;99.90;;;;;;6161126;23;20198;-84
2021/11/10 04:55:42;;;;;;;10.25;8.65;;;6.20;99.90;;;;;;6162364;23;20182;-82
2021/11/10 04:58:11;;;;;;;16.15;11.05;;;6.20;99.90;;;;;;6161226;23;20185;-83
2021/11/10 05:00:39;;;;;;;19.65;11.05;;;6.10;99.90;;;;;;6162383;23;20225;-83
2021/11/10 05:03:06;;;;;;;15.68;9.73;;;6.10;99.90;;;;;;6163553;23;20257;-83
2021/11/10 05:05:33;;;;;;;13.63;9.13;;;6.20;99.90;;;;;;6161330;23;20181;-83
2021/11/10 05:08:00;;;;;;;15.00;9.50;;;6.30;99.90;;;;;;6168163;23;20256;-83
2021/11/10 05:10:27;;;;;;;14.27;9.95;;;6.20;99.90;;;;;;6176225;23;20240;-83
2021/11/10 05:12:54;;;;;;;15.02;11.20;;;6.10;99.90;;;;;;6176462;23;20232;-84
2021/11/10 05:15:22;;;;;;;18.77;11.23;;;6.10;99.90;;;;;;6174939;23;20221;-83
2021/11/10 05:17:49;;;;;;;17.98;10.68;;;6.10;99.90;;;;;;6166694;23;20213;-84
2021/11/10 05:20:16;;;;;;;12.82;10.15;;;6.00;99.90;;;;;;6164032;23;20177;-84
2021/11/10 05:22:43;;;;;;;12.23;9.50;;;6.00;99.90;;;;;;6165367;23;20221;-84
2021/11/10 05:25:10;;;;;;;15.57;10.70;;;6.00;99.90;;;;;;6164603;23;20189;-84
2021/11/10 05:27:38;;;;;;;19.15;10.35;;;6.00;99.90;;;;;;6164947;23;20225;-84
2021/11/10 05:30:06;;;;;;;15.27;10.52;;;6.00;99.90;;;;;;6164534;23;20199;-83
2021/11/10 05:32:35;;;;;;;17.30;10.32;;;5.90;99.90;;;;;;6163952;23;20740;-83
2021/11/10 05:35:02;;;;;;;15.07;9.85;;;6.10;99.90;;;;;;6162848;23;20551;-85
2021/11/10 05:37:29;;;;;;;17.33;12.45;;;6.00;99.90;;;;;;6163659;23;20191;-83
2021/11/10 05:39:56;;;;;;;13.30;10.15;;;5.90;99.90;;;;;;6164267;23;20238;-83
2021/11/10 05:42:24;;;;;;;20.42;13.63;;;6.00;99.90;;;;;;6163313;23;20595;-82
2021/11/10 05:44:52;;;;;;;17.08;11.82;;;6.00;99.90;;;;;;6162900;23;20192;-82
2021/11/10 05:47:19;;;;;;;14.68;11.02;;;6.00;99.90;;;;;;6163772;23;20257;-82
2021/11/10 05:49:47;;;;;;;14.23;10.55;;;6.00;99.90;;;;;;6168959;23;20179;-83
2021/11/10 05:52:14;;;;;;;15.40;10.90;;;6.00;99.90;;;;;;6172855;23;20189;-83
2021/11/10 05:54:41;;;;;;;19.45;10.52;;;5.90;99.90;;;;;;6168675;23;20711;-83
2021/11/10 05:57:12;;;;;;;17.10;10.70;;;5.90;99.90;;;;;;6164190;23;20176;-84
2021/11/10 05:59:40;;;;;;;16.25;10.80;;;5.80;99.90;;;;;;6166990;23;20173;-81
2021/11/10 06:02:07;;;;;;;17.30;12.02;;;5.80;99.90;;;;;;6168185;23;20201;-82
2021/11/10 06:04:34;;;;;;;15.15;10.90;;;5.80;99.90;;;;;;6170714;23;20303;-81
2021/11/10 06:07:02;;;;;;;15.80;10.57;;;5.70;99.90;;;;;;6163584;23;20220;-84
2021/11/10 06:09:29;;;;;;;15.55;10.43;;;5.80;99.90;;;;;;6165524;23;20233;-84
2021/11/10 06:11:56;;;;;;;18.10;10.85;;;5.80;99.90;;;;;;6165395;23;20211;-83
2021/11/10 06:14:23;;;;;;;15.38;10.32;;;5.80;99.90;;;;;;6164823;23;20223;-84
2021/11/10 06:16:50;;;;;;;17.90;11.75;;;5.90;99.90;;;;;;6167860;23;20183;-84
2021/11/10 06:19:17;;;;;;;22.25;10.48;;;5.90;99.90;;;;;;6170607;23;20204;-84
2021/11/10 06:21:45;;;;;;;15.93;12.43;;;5.90;99.90;;;;;;6173132;23;20208;-83
2021/11/10 06:24:14;;;;;;;15.90;11.27;;;5.90;99.90;;;;;;6173078;23;20212;-84
2021/11/10 06:26:41;;;;;;;20.33;10.65;;;5.90;99.90;;;;;;6174364;23;20181;-83
2021/11/10 06:29:08;;;;;;;17.58;9.98;;;5.90;99.90;;;;;;6174749;23;20191;-83
2021/11/10 06:31:35;;;;;;;19.25;10.63;;;6.00;99.90;;;;;;6174971;23;20205;-84
2021/11/10 06:34:01;;;;;;;13.45;10.32;;;5.90;99.90;;;;;;6175061;23;20188;-86
2021/11/10 06:36:28;;;;;;;15.43;10.30;;;5.80;99.90;;;;;;6173639;23;20166;-84
2021/11/10 06:38:55;;;;;;;16.27;11.40;;;5.80;99.90;;;;;;6177197;23;20173;-86
2021/11/10 06:41:29;;;;;;;12.82;10.63;;;5.90;99.90;;;;;;6175523;23;20211;-88
2021/11/10 06:43:55;;;;;;;15.85;10.57;;;5.80;99.90;;;;;;6166941;23;20174;-85
2021/11/10 06:46:23;;;;;;;15.38;10.02;;;5.80;99.90;;;;;;6170882;23;20169;-85
2021/11/10 06:48:49;;;;;;;16.58;11.18;;;5.80;99.90;;;;;;6170671;23;20253;-86
2021/11/10 06:51:16;;;;;;;16.30;10.43;;;5.80;99.90;;;;;;6168736;23;20182;-84
2021/11/10 06:53:44;;;;;;;15.20;11.30;;;5.90;99.90;;;;;;6166528;23;20232;-84
2021/11/10 06:56:12;;;;;;;16.10;11.68;;;5.90;99.90;;;;;;6167744;23;20261;-84
2021/11/10 06:58:41;;;;;;;17.23;12.00;;;5.90;99.90;;;;;;6172033;23;20185;-84
2021/11/10 07:01:08;;;;;;;14.90;9.93;;;6.00;99.90;;;;;;6179149;23;20183;-83
2021/11/10 07:03:36;;;;;;;19.33;11.75;;;6.10;99.90;;;;;;6178423;23;20430;-81
2021/11/10 07:06:03;;;;;;;16.60;11.07;;;6.20;99.90;;;;;;6176535;23;20161;-81
2021/11/10 07:08:30;;;;;;;15.40;10.52;;;6.30;99.90;;;;;;6177989;23;20225;-81
2021/11/10 07:10:57;;;;;;;13.50;10.40;;;6.30;99.90;;;;;;6178227;23;20180;-83
2021/11/10 07:13:24;;;;;;;18.05;11.48;;;6.50;99.90;;;;;;6177671;23;20216;-80
2021/11/10 07:15:53;;;;;;;15.95;10.77;;;6.60;99.90;;;;;;6176875;23;20207;-82
2021/11/10 07:18:20;;;;;;;17.25;11.63;;;6.60;99.90;;;;;;6175629;23;20234;-83
2021/11/10 07:20:49;;;;;;;17.27;11.95;;;6.70;99.90;;;;;;6179844;23;20166;-87
2021/11/10 07:23:16;;;;;;;16.58;10.25;;;6.70;99.90;;;;;;6182141;23;20191;-84
2021/11/10 07:25:43;;;;;;;12.80;9.43;;;6.80;99.90;;;;;;6182677;23;20156;-84
2021/11/10 07:28:10;;;;;;;17.45;11.45;;;6.80;99.90;;;;;;6180825;23;20209;-85
2021/11/10 07:30:38;;;;;;;12.40;10.02;;;6.80;99.90;;;;;;6181272;23;20170;-84
2021/11/10 07:36:17;;;;;;;26.42;12.52;;;6.90;99.90;;;;;;6182707;23;20160;-83
2021/11/10 07:38:44;;;;;;;19.08;10.95;;;7.00;99.90;;;;;;6182053;23;20175;-82
2021/11/10 07:41:24;;;;;;;16.50;10.32;;;7.40;99.90;;;;;;6182797;23;20156;-82
2021/11/10 07:44:39;;;;;;;11.93;9.65;;;8.10;99.90;;;;;;6183377;23;20149;-85
2021/11/10 07:47:11;;;;;;;12.40;10.30;;;8.70;99.90;;;;;;6183669;23;20149;-84
2021/11/10 07:50:04;;;;;;;18.75;10.05;;;9.30;99.90;;;;;;6182914;23;20190;-88
2021/11/10 07:52:42;;;;;;;17.65;9.30;;;10.10;99.90;;;;;;6183340;23;20186;-87
2021/11/10 07:55:10;;;;;;;12.90;9.02;;;10.90;99.90;;;;;;6182598;23;20156;-84
2021/11/10 07:57:41;;;;;;;17.08;9.85;;;11.40;99.90;;;;;;6182733;23;20232;-85
2021/11/10 08:00:11;;;;;;;10.80;8.75;;;11.70;99.90;;;;;;6182337;23;20172;-86
2021/11/10 08:02:38;;;;;;;11.98;8.05;;;12.00;99.90;;;;;;6177060;23;20200;-81
2021/11/10 08:05:07;;;;;;;14.57;8.82;;;12.40;99.90;;;;;;6163007;23;20180;-81
2021/11/10 08:07:35;;;;;;;12.63;8.15;;;12.50;99.90;;;;;;6163288;23;20219;-83
2021/11/10 08:10:06;;;;;;;17.60;9.32;;;12.90;99.90;;;;;;6166368;23;20201;-84
2021/11/10 08:12:33;;;;;;;13.18;9.25;;;13.30;99.90;;;;;;6165785;23;20232;-84
2021/11/10 08:15:00;;;;;;;12.73;8.82;;;13.70;99.90;;;;;;6167877;23;20164;-88
2021/11/10 08:17:27;;;;;;;14.53;10.00;;;14.60;99.70;;;;;;6171152;23;20179;-85
2021/11/10 08:19:53;;;;;;;17.33;10.40;;;14.80;95.50;;;;;;6166236;23;20420;-83
2021/11/10 08:22:21;;;;;;;13.90;9.53;;;15.10;95.00;;;;;;6165358;23;20198;-84
2021/11/10 08:24:50;;;;;;;9.07;8.17;;;15.00;94.60;;;;;;6163441;23;20407;-84
2021/11/10 08:27:18;;;;;;;10.73;7.73;;;15.40;94.00;;;;;;6164022;23;20441;-85
2021/11/10 08:29:45;;;;;;;12.00;8.33;;;15.40;93.10;;;;;;6161892;23;20463;-84
2021/11/10 08:32:12;;;;;;;12.80;9.60;;;15.50;94.20;;;;;;6161241;23;20436;-85
2021/11/10 08:34:39;;;;;;;15.20;9.70;;;15.60;93.50;;;;;;6160458;23;20450;-85
2021/11/10 08:37:06;;;;;;;10.93;9.33;;;15.90;93.00;;;;;;6160545;23;20498;-85
2021/11/10 08:39:33;;;;;;;13.93;10.30;;;15.50;92.30;;;;;;6160826;23;20717;-86
2021/11/10 08:42:01;;;;;;;16.50;10.30;;;14.50;92.80;;;;;;6167333;23;20273;-83
2021/11/10 08:44:31;;;;;;;15.65;8.63;;;13.90;94.70;;;;;;6167280;23;20207;-83
2021/11/10 08:46:59;;;;;;;10.18;7.93;;;13.90;96.80;;;;;;6167223;23;20487;-82
2021/11/10 08:49:26;;;;;;;12.23;9.93;;;13.70;97.50;;;;;;6167327;23;20189;-83
2021/11/10 08:51:53;;;;;;;10.35;8.20;;;13.70;97.00;;;;;;6162182;23;20225;-85
2021/11/10 08:54:25;;;;;;;12.00;9.82;;;13.50;97.00;;;;;;6164368;23;20191;-83
2021/11/10 08:56:52;;;;;;;13.65;8.02;;;13.50;97.60;;;;;;6163767;23;20166;-83
2021/11/10 08:59:19;;;;;;;13.82;9.85;;;14.10;98.10;;;;;;6172665;23;20208;-83
2021/11/10 09:01:48;;;;;;;12.45;8.73;;;14.30;96.20;;;;;;6175058;23;20212;-83
2021/11/10 09:04:17;;;;;;;18.00;9.75;;;14.50;95.80;;;;;;6175551;23;20186;-84
2021/11/10 09:06:45;;;;;;;17.17;9.40;;;15.00;94.80;;;;;;6170546;23;20203;-84
2021/11/10 09:09:11;;;;;;;10.47;8.50;;;15.30;94.30;;;;;;6169472;23;20198;-85
2021/11/10 09:11:39;;;;;;;14.53;9.10;;;15.60;93.50;;;;;;6170286;23;20472;-83
2021/11/10 09:14:06;;;;;;;16.53;11.93;;;16.10;92.90;;;;;;6169394;23;20427;-83
2021/11/10 09:16:33;;;;;;;15.00;9.68;;;15.70;92.50;;;;;;6169765;23;20400;-83
2021/11/10 09:19:01;;;;;;;13.27;10.03;;;16.00;94.60;;;;;;6170194;23;20216;-84
2021/11/10 09:21:32;;;;;;;12.23;10.37;;;15.50;93.10;;;;;;6164671;23;20407;-82
2021/11/10 09:23:59;;;;;;;20.33;11.15;;;15.30;94.10;;;;;;6163580;23;20397;-83
2021/11/10 09:26:26;;;;;;;15.77;9.77;;;14.70;95.90;;;;;;6162323;23;20258;-84
2021/11/10 09:28:54;;;;;;;16.10;10.35;;;13.90;96.10;;;;;;6163104;23;20329;-84
2021/11/10 09:31:21;;;;;;;12.48;9.85;;;13.40;99.60;;;;;;6162681;23;20197;-84
2021/11/10 09:33:50;;;;;;;15.35;10.63;;;12.90;99.90;;;;;;6162467;23;20203;-83
2021/11/10 09:36:18;;;;;;;18.13;10.45;;;12.70;99.90;;;;;;6162207;23;20220;-84
2021/11/10 09:38:46;;;;;;;23.00;10.63;;;12.80;99.90;;;;;;6162340;23;20191;-83
2021/11/10 09:41:13;;;;;;;12.98;9.27;;;12.50;99.90;;;;;;6163536;23;20234;-85
2021/11/10 09:43:42;;;;;;;14.85;9.43;;;12.70;99.90;;;;;;6162616;23;20210;-84
2021/11/10 09:46:12;;;;;;;13.18;9.43;;;13.90;99.90;;;;;;6161831;23;20264;-85
2021/11/10 09:48:39;;;;;;;14.20;10.13;;;15.00;96.40;;;;;;6160814;23;20670;-84
2021/11/10 09:51:07;;;;;;;21.38;10.43;;;15.30;95.70;;;;;;6163287;23;20191;-85
2021/11/10 09:53:36;;;;;;;12.45;9.55;;;15.30;95.50;;;;;;6161738;23;20242;-85
2021/11/10 09:56:04;;;;;;;19.02;12.35;;;14.20;95.70;;;;;;6161426;23;20212;-83
2021/11/10 09:58:33;;;;;;;14.65;9.45;;;13.80;97.70;;;;;;6162450;23;20220;-84
2021/11/10 10:01:03;;;;;;;18.73;10.35;;;13.80;99.10;;;;;;6162185;23;20181;-84
2021/11/10 10:03:30;;;;;;;13.77;10.30;;;13.50;98.70;;;;;;6161396;23;20208;-84
2021/11/10 10:05:58;;;;;;;15.55;10.82;;;13.30;99.90;;;;;;6163234;23;20184;-84
2021/11/10 10:08:25;;;;;;;18.25;9.52;;;13.20;99.90;;;;;;6166758;23;20180;-86
2021/11/10 10:10:54;;;;;;;17.10;11.93;;;12.90;99.90;;;;;;6163824;23;20264;-84
2021/11/10 10:13:23;;;;;;;18.70;9.70;;;13.10;99.90;;;;;;6161215;23;20196;-84
2021/11/10 10:15:51;;;;;;;17.77;10.95;;;13.10;99.90;;;;;;6161560;23;20180;-84
2021/11/10 10:18:22;;;;;;;14.38;10.73;;;12.80;99.90;;;;;;6161983;23;20179;-84
2021/11/10 10:20:55;;;;;;;18.50;11.75;;;12.40;99.90;;;;;;6162498;23;20178;-85
2021/11/10 10:23:25;;;;;;;12.05;9.82;;;12.10;99.90;;;;;;6161454;23;20200;-85
2021/11/10 10:25:57;;;;;;;16.23;10.15;;;11.80;99.90;;;;;;6162175;23;20165;-84
2021/11/10 10:28:27;;;;;;;14.32;9.60;;;11.80;99.90;;;;;;6159940;23;20183;-83
2021/11/10 10:30:56;;;;;;;16.55;9.95;;;11.80;99.90;;;;;;6162540;23;20238;-83
2021/11/10 10:33:26;;;;;;;14.57;9.45;;;11.70;99.90;;;;;;6164191;23;20283;-86
2021/11/10 10:35:55;;;;;;;10.73;8.60;;;11.80;99.90;;;;;;6165438;23;20206;-83
2021/11/10 10:38:24;;;;;;;14.90;9.45;;;12.00;99.90;;;;;;6164902;23;20184;-85
2021/11/10 10:40:57;;;;;;;16.83;10.45;;;12.20;99.90;;;;;;6165255;23;20162;-86
2021/11/10 10:43:24;;;;;;;16.17;9.52;;;12.40;99.90;;;;;;6165608;23;20203;-84
2021/11/10 10:45:53;;;;;;;15.85;10.60;;;12.20;99.90;;;;;;6163463;23;20164;-84
2021/11/10 10:48:25;;;;;;;10.98;8.75;;;12.20;99.90;;;;;;6164123;23;20191;-86
2021/11/10 10:50:55;;;;;;;16.63;9.65;;;12.10;99.90;;;;;;6165947;23;20582;-85
2021/11/10 10:53:34;;;;;;;14.57;9.20;;;12.10;99.90;;;;;;6174723;23;20250;-84
2021/11/10 10:56:14;;;;;;;16.00;9.35;;;12.20;99.90;;;;;;6175597;23;20164;-85
2021/11/10 10:58:41;;;;;;;14.15;11.27;;;12.00;99.90;;;;;;6164057;23;20160;-87
2021/11/10 11:01:28;;;;;;;19.55;10.00;;;11.70;99.90;;;;;;6164627;23;20258;-85
2021/11/10 11:04:01;;;;;;;16.67;10.40;;;11.60;99.90;;;;;;6168790;23;20231;-84
2021/11/10 11:06:35;;;;;;;17.35;9.90;;;11.70;99.90;;;;;;6166836;23;20169;-83
2021/11/10 11:09:14;;;;;;;12.60;9.45;;;12.00;99.90;;;;;;6162718;23;20183;-85
2021/11/10 11:11:55;;;;;;;17.95;10.45;;;12.00;99.90;;;;;;6163833;23;20174;-85
2021/11/10 11:14:37;;;;;;;14.90;9.82;;;12.00;99.90;;;;;;6164049;23;20180;-84
2021/11/10 11:17:05;;;;;;;14.82;9.77;;;12.00;99.90;;;;;;6162763;23;20179;-85
2021/11/10 11:19:36;;;;;;;13.77;8.73;;;12.00;99.90;;;;;;6163843;23;20179;-84
2021/11/10 11:22:05;;;;;;;17.67;10.20;;;12.00;99.90;;;;;;6162166;23;20278;-86
2021/11/10 11:24:40;;;;;;;16.83;8.65;;;12.00;99.90;;;;;;6162071;23;20213;-83
2021/11/10 11:27:13;;;;;;;14.02;8.35;;;12.10;99.90;;;;;;6166377;23;20175;-85
2021/11/10 11:29:41;;;;;;;14.35;9.45;;;12.20;99.90;;;;;;6167910;23;20196;-83
2021/11/10 11:32:19;;;;;;;16.27;8.48;;;12.20;99.90;;;;;;6168113;23;20631;-85
2021/11/10 11:34:54;;;;;;;13.70;8.35;;;12.30;99.90;;;;;;6168948;23;20227;-84
2021/11/10 11:37:22;;;;;;;18.48;9.02;;;12.00;99.90;;;;;;6168789;23;20183;-84
2021/11/10 11:39:51;;;;;;;15.65;10.30;;;12.20;99.90;;;;;;6169053;23;20253;-85
2021/11/10 11:42:20;;;;;;;12.80;8.55;;;12.40;99.90;;;;;;6168927;23;20243;-85
2021/11/10 11:44:47;;;;;;;13.38;7.97;;;12.50;99.90;;;;;;6168883;23;20195;-85
2021/11/10 11:47:18;;;;;;;14.27;10.02;;;12.50;99.90;;;;;;6167416;23;20173;-83
2021/11/10 11:49:46;;;;;;;11.98;9.20;;;12.40;99.90;;;;;;6165062;23;20190;-84
2021/11/10 11:52:14;;;;;;;15.82;10.00;;;12.30;99.90;;;;;;6164721;23;20195;-82
2021/11/10 11:54:44;;;;;;;15.20;10.52;;;12.30;99.90;;;;;;6165029;23;20287;-83
2021/11/10 11:57:14;;;;;;;15.18;10.50;;;12.20;99.90;;;;;;6164775;23;20171;-85
2021/11/10 11:59:43;;;;;;;15.27;10.70;;;12.10;99.90;;;;;;6166213;23;20179;-84
2021/11/10 12:02:24;;;;;;;16.17;10.27;;;12.10;99.90;;;;;;6164612;23;20206;-80
2021/11/10 12:04:53;;;;;;;14.18;10.15;;;12.00;99.90;;;;;;6164636;23;20258;-85
2021/11/10 12:07:47;;;;;;;16.85;10.70;;;12.20;99.90;;;;;;6165111;23;20222;-82
2021/11/10 12:10:30;;;;;;;18.00;10.73;;;12.20;99.90;;;;;;6162453;23;20202;-82
2021/11/10 12:13:08;;;;;;;12.43;9.77;;;12.30;99.90;;;;;;6163986;23;20207;-85
2021/11/10 12:16:18;;;;;;;12.00;8.10;;;12.50;99.90;;;;;;6166083;23;20178;-84
2021/11/10 12:18:55;;;;;;;11.55;8.15;;;12.60;99.90;;;;;;6142915;23;20686;-84
2021/11/10 12:21:34;;;;;;;11.18;6.75;;;12.40;99.90;;;;;;6161567;23;20168;-84
2021/11/10 12:24:20;;;;;;;19.60;10.80;;;12.40;99.90;;;;;;6166067;23;20179;-85
2021/11/10 12:27:18;;;;;;;12.10;8.35;;;12.50;99.90;;;;;;6164568;23;20183;-83
2021/11/10 12:29:56;;;;;;;19.60;11.07;;;12.50;99.90;;;;;;6141688;23;20211;-83
2021/11/10 12:32:25;;;;;;;14.95;8.82;;;12.40;99.90;;;;;;6164759;23;20199;-83
2021/11/10 12:34:56;;;;;;;14.85;9.73;;;12.50;99.90;;;;;;6164921;23;20199;-85
2021/11/10 12:37:31;;;;;;;20.67;11.02;;;12.50;99.90;;;;;;6164372;23;20223;-84
2021/11/10 12:40:05;;;;;;;17.70;10.35;;;12.30;99.90;;;;;;6163284;23;20210;-84
2021/11/10 12:42:57;;;;;;;15.02;9.35;;;12.30;99.90;;;;;;6164850;23;20237;-85
2021/11/10 12:45:28;;;;;;;17.00;9.18;;;12.30;99.90;;;;;;6136166;23;20492;-87
2021/11/10 12:47:57;;;;;;;12.27;9.70;;;12.40;99.90;;;;;;6165640;23;20171;-85
2021/11/10 12:50:38;;;;;;;14.98;10.05;;;12.30;99.90;;;;;;6166835;23;20207;-80